Time;durP1;ratioP1;P1;durP2;ratioP2;P2;SDS_P1;SDS_P2;PMS_P1;PMS_P2;Temp;Humidity;BMP_temperature;BMP_pressure;BME280_temperature;BME280_humidity;BME280_pressure;Samples;Min_cycle;Max_cycle;Signal;HPM_P1;HPM_P2
2022/03/13 00:02:07;;;;;;;13.68;12.25;;;;;;;5.60;57.22;102343.97;4993653;28;20055;-81
2022/03/13 00:04:36;;;;;;;13.65;11.25;;;;;;;5.43;57.12;102334.13;4989131;28;20054;-81
2022/03/13 00:07:09;;;;;;;13.88;11.90;;;;;;;5.50;57.00;102356.66;4989460;28;20050;-80
2022/03/13 00:09:37;;;;;;;15.25;12.45;;;;;;;5.30;56.79;102331.97;4990623;28;20046;-80
2022/03/13 00:12:10;;;;;;;14.23;12.73;;;;;;;5.47;57.53;102367.34;4990973;28;20057;-80
2022/03/13 00:14:41;;;;;;;16.47;11.73;;;;;;;5.45;57.11;102362.13;4994338;28;20046;-82
2022/03/13 00:17:08;;;;;;;17.30;12.77;;;;;;;4.66;57.64;102235.31;5010358;28;20486;-80
2022/03/13 00:19:35;;;;;;;14.82;11.88;;;;;;;5.41;57.75;102364.91;5010847;28;20050;-80
2022/03/13 00:22:01;;;;;;;14.02;12.55;;;;;;;5.37;57.85;102363.34;5010393;28;20056;-81
2022/03/13 00:24:30;;;;;;;13.50;11.68;;;;;;;5.28;57.22;102356.66;5010369;28;20050;-80
2022/03/13 00:26:57;;;;;;;13.97;11.70;;;;;;;5.33;57.64;102350.28;5010049;28;20399;-80
2022/03/13 00:29:23;;;;;;;16.40;12.88;;;;;;;5.34;57.61;102357.28;5010198;28;20097;-81
2022/03/13 00:31:50;;;;;;;14.63;11.97;;;;;;;5.39;57.14;102348.31;5009914;28;20466;-81
2022/03/13 00:34:16;;;;;;;19.57;12.37;;;;;;;5.12;56.97;102303.72;5011290;28;20056;-80
2022/03/13 00:36:43;;;;;;;15.27;12.17;;;;;;;5.46;57.13;102358.56;5010545;28;20092;-81
2022/03/13 00:39:10;;;;;;;14.63;12.67;;;;;;;5.51;56.66;102358.38;5010676;28;20082;-81
2022/03/13 00:41:39;;;;;;;14.60;12.50;;;;;;;5.50;56.77;102365.41;5010719;28;20133;-81
2022/03/13 00:44:06;;;;;;;15.30;12.53;;;;;;;5.53;56.65;102359.16;5010555;28;20050;-83
2022/03/13 00:46:33;;;;;;;15.07;13.37;;;;;;;5.40;56.53;102352.69;5010450;28;20475;-80
2022/03/13 00:49:00;;;;;;;18.10;14.02;;;;;;;5.25;56.37;102328.66;5010651;28;20049;-81
2022/03/13 00:51:26;;;;;;;14.75;13.23;;;;;;;5.28;56.09;102346.97;5010346;28;20144;-82
2022/03/13 00:53:53;;;;;;;17.90;14.90;;;;;;;5.30;55.86;102357.44;5011617;28;20050;-79
2022/03/13 00:56:20;;;;;;;19.93;15.03;;;;;;;5.22;55.93;102360.38;5012041;28;20152;-80
2022/03/13 00:58:46;;;;;;;20.40;15.27;;;;;;;5.21;56.62;102363.91;5010951;28;20069;-84
2022/03/13 01:01:13;;;;;;;17.97;15.23;;;;;;;5.00;56.57;102322.59;5011808;28;20142;-81
2022/03/13 01:03:40;;;;;;;19.43;15.40;;;;;;;5.17;56.49;102354.44;5010020;28;20408;-84
2022/03/13 01:06:10;;;;;;;21.13;15.90;;;;;;;5.20;56.35;102356.09;5011936;28;20065;-82
2022/03/13 01:08:40;;;;;;;17.17;15.33;;;;;;;5.07;56.48;102327.59;5011534;28;20050;-81
2022/03/13 01:11:07;;;;;;;19.70;15.30;;;;;;;3.98;56.79;102142.31;5014914;28;20236;-82
2022/03/13 01:13:35;;;;;;;16.70;14.53;;;;;;;5.26;56.58;102346.16;5030285;28;20081;-81
2022/03/13 01:16:23;;;;;;;21.97;15.03;;;;;;;5.49;55.55;102347.06;5028041;28;20154;-82
2022/03/13 01:19:00;;;;;;;20.73;15.00;;;;;;;5.16;56.06;102321.13;5014928;28;20515;-82
2022/03/13 01:21:29;;;;;;;19.07;14.70;;;;;;;5.06;57.17;102338.19;5012164;28;20128;-81
2022/03/13 01:23:59;;;;;;;18.37;14.37;;;;;;;4.62;56.70;102264.41;5009924;28;20042;-82
2022/03/13 01:26:26;;;;;;;18.93;14.93;;;;;;;5.16;57.21;102343.97;5010121;28;20135;-81
2022/03/13 01:28:57;;;;;;;19.50;15.30;;;;;;;5.22;56.37;102347.22;5009892;28;20569;-80
2022/03/13 01:31:29;;;;;;;20.63;14.98;;;;;;;5.29;56.46;102348.69;5010108;28;20542;-81
2022/03/13 01:33:57;;;;;;;18.45;14.93;;;;;;;4.55;56.58;102236.63;5009569;28;20145;-83
2022/03/13 01:36:25;;;;;;;18.17;14.57;;;;;;;4.00;57.24;102150.13;5010865;28;20128;-82
2022/03/13 01:38:54;;;;;;;18.33;14.87;;;;;;;4.95;57.60;102332.47;5009661;28;20093;-81
2022/03/13 01:41:22;;;;;;;19.30;14.43;;;;;;;4.52;57.89;102281.44;5010159;28;20184;-80
2022/03/13 01:43:50;;;;;;;16.97;13.97;;;;;;;4.82;57.92;102343.44;5009786;28;20054;-80
2022/03/13 01:46:17;;;;;;;15.73;12.97;;;;;;;4.75;57.64;102312.16;5010291;28;20399;-82
2022/03/13 01:48:58;;;;;;;18.63;14.23;;;;;;;4.05;57.76;102211.25;5009795;28;20129;-83
2022/03/13 01:51:25;;;;;;;19.70;14.83;;;;;;;4.53;58.16;102283.16;5010071;28;20153;-80
2022/03/13 01:53:58;;;;;;;22.60;14.97;;;;;;;4.64;57.71;102283.63;5010193;28;20136;-82
2022/03/13 01:56:25;;;;;;;16.97;13.67;;;;;;;4.84;58.18;102325.81;5010343;28;20050;-81
2022/03/13 01:58:56;;;;;;;17.10;14.67;;;;;;;4.79;58.19;102335.69;5010718;28;20046;-81
2022/03/13 02:01:25;;;;;;;17.53;13.20;;;;;;;4.60;58.32;102303.06;5010373;28;20122;-80
2022/03/13 02:03:52;;;;;;;22.13;15.67;;;;;;;4.66;58.08;102321.22;5010242;28;20062;-82
2022/03/13 02:06:26;;;;;;;17.83;14.40;;;;;;;4.45;58.00;102297.44;5009387;28;20060;-82
2022/03/13 02:08:54;;;;;;;17.57;15.60;;;;;;;4.34;58.56;102281.19;5008979;28;20137;-81
2022/03/13 02:11:36;;;;;;;18.83;13.73;;;;;;;3.87;58.68;102215.41;5008381;28;20046;-82
2022/03/13 02:14:05;;;;;;;17.35;14.07;;;;;;;4.58;58.86;102325.94;5008149;28;20145;-82
2022/03/13 02:16:32;;;;;;;22.97;15.07;;;;;;;4.52;58.61;102331.44;5006744;28;20584;-83
2022/03/13 02:18:59;;;;;;;19.93;14.20;;;;;;;4.34;58.79;102298.75;5006627;28;20042;-82
2022/03/13 02:21:30;;;;;;;15.63;13.60;;;;;;;4.44;59.28;102308.00;5006570;28;20049;-81
2022/03/13 02:24:01;;;;;;;17.53;14.23;;;;;;;4.52;59.26;102320.91;5006807;28;20111;-82
2022/03/13 02:26:31;;;;;;;17.10;13.13;;;;;;;4.31;58.86;102281.31;5007709;28;20056;-81
2022/03/13 02:28:58;;;;;;;14.80;13.30;;;;;;;4.43;57.89;102270.34;5005902;28;20054;-82
2022/03/13 02:31:32;;;;;;;14.50;12.37;;;;;;;4.57;58.29;102282.13;5006434;28;20518;-82
2022/03/13 02:33:59;;;;;;;17.73;13.50;;;;;;;4.72;57.78;102299.97;5008056;28;20060;-81
2022/03/13 02:36:31;;;;;;;15.63;13.23;;;;;;;4.72;57.89;102302.59;5007862;28;20627;-81
2022/03/13 02:39:09;;;;;;;17.07;13.50;;;;;;;4.78;57.82;102304.16;5006440;28;20054;-82
2022/03/13 02:41:38;;;;;;;17.57;14.63;;;;;;;4.63;57.29;102287.16;5006500;28;20484;-81
2022/03/13 02:44:06;;;;;;;18.93;13.77;;;;;;;4.29;57.19;102201.63;5006233;28;20054;-81
2022/03/13 02:47:04;;;;;;;16.50;14.23;;;;;;;4.69;57.66;102300.09;5006182;28;20062;-81
2022/03/13 02:49:32;;;;;;;17.70;13.33;;;;;;;4.21;58.33;102245.75;4999108;28;20046;-81
2022/03/13 02:52:02;;;;;;;17.13;14.00;;;;;;;4.49;57.76;102306.94;5007448;28;20149;-80
2022/03/13 02:54:29;;;;;;;20.07;13.67;;;;;;;4.35;58.40;102303.09;5006458;28;20053;-81
2022/03/13 02:56:57;;;;;;;14.70;12.40;;;;;;;4.27;58.70;102311.22;5005987;28;20506;-81
2022/03/13 02:59:26;;;;;;;19.50;13.37;;;;;;;4.17;59.01;102292.28;5008334;28;20072;-80
2022/03/13 03:01:54;;;;;;;21.50;13.47;;;;;;;4.23;59.36;102304.38;5010427;28;20149;-79
2022/03/13 03:04:24;;;;;;;14.63;13.13;;;;;;;4.17;59.24;102291.44;5006909;28;20400;-81
2022/03/13 03:07:02;;;;;;;17.17;12.97;;;;;;;3.90;59.05;102248.59;5006391;28;20057;-78
2022/03/13 03:09:35;;;;;;;18.43;13.23;;;;;;;3.70;59.20;102207.25;5007072;28;20050;-80
2022/03/13 03:12:04;;;;;;;16.03;13.27;;;;;;;4.28;59.14;102297.19;5006938;28;20104;-81
2022/03/13 03:14:33;;;;;;;14.47;11.50;;;;;;;4.33;58.25;102290.00;5007254;28;20131;-80
2022/03/13 03:17:01;;;;;;;15.47;11.80;;;;;;;3.77;58.52;102200.88;5006563;28;20563;-82
2022/03/13 03:19:27;;;;;;;16.10;12.83;;;;;;;3.82;58.08;102193.69;5007126;28;20136;-81
2022/03/13 03:21:54;;;;;;;15.70;12.90;;;;;;;4.48;57.96;102289.44;5006296;28;20049;-82
2022/03/13 03:24:23;;;;;;;15.27;12.23;;;;;;;4.25;58.31;102265.75;5008517;28;20054;-81
2022/03/13 03:26:50;;;;;;;13.30;11.90;;;;;;;4.34;58.09;102294.34;5008389;28;20156;-80
2022/03/13 03:29:17;;;;;;;15.20;12.63;;;;;;;4.47;57.74;102293.00;5006482;28;20052;-81
2022/03/13 03:31:46;;;;;;;21.57;12.63;;;;;;;4.33;57.49;102263.69;5006019;28;20136;-82
2022/03/13 03:34:16;;;;;;;14.13;12.50;;;;;;;3.96;58.48;102201.94;5005992;28;20096;-81
2022/03/13 03:36:46;;;;;;;14.43;12.63;;;;;;;4.50;58.21;102292.88;5009043;28;20553;-79
2022/03/13 03:39:13;;;;;;;13.80;12.03;;;;;;;4.36;57.95;102268.00;5007850;28;20427;-81
2022/03/13 03:41:45;;;;;;;15.60;12.00;;;;;;;4.26;58.06;102289.34;5010062;28;20140;-82
2022/03/13 03:44:13;;;;;;;15.87;12.43;;;;;;;4.11;58.87;102270.66;5011294;28;20132;-82
2022/03/13 03:46:42;;;;;;;15.43;13.03;;;;;;;3.56;59.19;102208.56;5011396;28;20149;-80
2022/03/13 03:49:08;;;;;;;14.93;13.17;;;;;;;3.59;59.00;102212.84;5009732;28;20153;-82
2022/03/13 03:51:36;;;;;;;15.97;12.40;;;;;;;4.03;59.58;102290.16;5009882;28;20655;-79
2022/03/13 03:54:04;;;;;;;14.40;12.87;;;;;;;3.76;59.75;102254.31;5010778;28;20052;-80
2022/03/13 03:56:31;;;;;;;14.07;12.67;;;;;;;3.94;60.21;102293.09;5009639;28;20053;-81
2022/03/13 03:58:58;;;;;;;18.13;13.63;;;;;;;3.93;60.51;102288.78;5009537;28;20343;-81
2022/03/13 04:01:25;;;;;;;16.80;13.17;;;;;;;3.75;60.13;102271.00;5009829;28;20089;-81
2022/03/13 04:03:52;;;;;;;17.53;12.90;;;;;;;3.76;59.68;102277.97;5010642;28;20492;-81
2022/03/13 04:06:19;;;;;;;18.00;13.23;;;;;;;3.79;59.86;102299.75;5015386;28;20085;-82
2022/03/13 04:08:47;;;;;;;17.00;11.97;;;;;;;3.73;60.68;102293.81;5015447;28;20141;-82
2022/03/13 04:11:14;;;;;;;17.83;12.73;;;;;;;3.77;60.42;102292.81;5011129;28;20137;-81
2022/03/13 04:13:40;;;;;;;20.00;13.50;;;;;;;3.54;60.50;102252.41;5009179;28;20064;-82
2022/03/13 04:16:12;;;;;;;18.77;13.75;;;;;;;3.47;60.33;102244.78;4992665;28;20070;-82
2022/03/13 04:18:39;;;;;;;13.37;12.07;;;;;;;3.71;60.30;102285.13;4989210;28;20132;-82
2022/03/13 04:21:06;;;;;;;15.60;12.83;;;;;;;3.70;60.40;102267.66;4989373;28;20408;-81
2022/03/13 04:23:34;;;;;;;14.73;12.30;;;;;;;3.76;60.55;102272.69;4989142;28;20149;-80
2022/03/13 04:26:03;;;;;;;16.57;12.43;;;;;;;3.19;59.78;102185.31;4989329;28;20467;-81
2022/03/13 04:28:31;;;;;;;14.60;12.10;;;;;;;3.51;60.27;102234.13;4989486;28;20054;-81
2022/03/13 04:30:58;;;;;;;16.07;12.93;;;;;;;3.78;60.08;102265.63;4990509;28;20072;-81
2022/03/13 04:33:33;;;;;;;19.70;13.73;;;;;;;3.98;59.91;102270.19;4989347;28;20471;-80
2022/03/13 04:36:00;;;;;;;14.73;12.63;;;;;;;3.81;59.07;102228.75;4990094;28;20047;-80
2022/03/13 04:38:27;;;;;;;14.17;12.57;;;;;;;4.21;58.30;102245.75;4992943;28;20050;-82
2022/03/13 04:40:55;;;;;;;13.27;11.93;;;;;;;3.86;58.85;102221.59;5005494;28;20093;-83
2022/03/13 04:43:23;;;;;;;17.57;12.63;;;;;;;3.95;59.38;102242.25;5008971;28;20078;-81
2022/03/13 04:45:51;;;;;;;19.73;12.77;;;;;;;3.94;59.52;102256.31;4990003;28;20272;-81
2022/03/13 04:48:18;;;;;;;13.83;12.47;;;;;;;3.78;58.11;102171.06;4989514;28;20049;-82
2022/03/13 04:50:45;;;;;;;16.67;12.83;;;;;;;4.33;57.44;102241.81;5008382;28;20137;-83
2022/03/13 04:53:13;;;;;;;13.77;11.17;;;;;;;4.42;58.60;102279.16;5022776;28;20144;-83
2022/03/13 04:55:40;;;;;;;13.73;12.30;;;;;;;3.93;58.73;102217.84;5007758;28;20507;-81
2022/03/13 04:58:12;;;;;;;14.17;11.37;;;;;;;3.33;58.45;102108.75;5008716;28;20068;-80
2022/03/13 05:00:39;;;;;;;15.03;11.43;;;;;;;3.99;59.18;102261.41;5007076;28;20046;-82
2022/03/13 05:03:07;;;;;;;11.50;10.23;;;;;;;3.85;60.18;102254.84;5007882;28;20053;-81
2022/03/13 05:05:38;;;;;;;15.47;10.60;;;;;;;3.90;59.75;102267.84;5008819;28;20076;-81
2022/03/13 05:08:05;;;;;;;15.63;10.50;;;;;;;3.78;60.00;102270.88;5008533;28;20230;-80
2022/03/13 05:10:38;;;;;;;16.30;10.03;;;;;;;3.70;59.88;102257.16;5023679;28;20508;-80
2022/03/13 05:13:14;;;;;;;14.80;10.33;;;;;;;3.38;60.11;102206.59;5007586;28;20077;-81
2022/03/13 05:15:42;;;;;;;12.13;10.83;;;;;;;3.72;60.10;102264.06;4995409;28;20061;-82
2022/03/13 05:18:10;;;;;;;15.90;10.70;;;;;;;3.76;60.27;102272.69;4988646;28;20050;-80
2022/03/13 05:20:37;;;;;;;13.47;9.90;;;;;;;3.80;60.05;102275.19;4989674;28;20113;-81
2022/03/13 05:23:05;;;;;;;13.50;9.30;;;;;;;3.91;60.61;102293.22;4987696;28;20204;-79
2022/03/13 05:25:32;;;;;;;10.87;9.00;;;;;;;3.90;60.09;102288.00;4987726;28;20249;-80
2022/03/13 05:27:59;;;;;;;13.20;9.50;;;;;;;3.34;60.38;102202.31;4986888;28;20056;-81
2022/03/13 05:30:27;;;;;;;10.13;9.10;;;;;;;3.48;60.32;102228.13;4988436;28;20482;-80
2022/03/13 05:32:55;;;;;;;10.90;9.17;;;;;;;2.54;59.98;102074.59;4987079;28;20062;-81
2022/03/13 05:35:22;;;;;;;14.17;9.07;;;;;;;3.19;60.35;102203.69;4987132;28;20161;-81
2022/03/13 05:37:49;;;;;;;9.10;8.17;;;;;;;3.80;60.82;102303.22;4986944;28;20057;-81
2022/03/13 05:40:18;;;;;;;11.80;9.37;;;;;;;3.26;60.37;102220.09;4987040;28;20058;-82
2022/03/13 05:42:47;;;;;;;10.90;8.30;;;;;;;3.71;60.09;102300.91;4986890;28;20153;-82
2022/03/13 05:45:16;;;;;;;9.87;7.87;;;;;;;3.45;59.99;102251.84;4986479;28;20489;-82
2022/03/13 05:47:44;;;;;;;9.23;8.10;;;;;;;3.33;60.42;102234.75;4986690;28;20145;-81
2022/03/13 05:50:11;;;;;;;9.77;8.40;;;;;;;3.77;61.14;102312.06;4986533;28;20130;-81
2022/03/13 05:52:38;;;;;;;8.97;8.03;;;;;;;3.71;60.90;102300.91;4992249;28;20058;-80
2022/03/13 05:55:05;;;;;;;9.37;8.47;;;;;;;3.66;60.16;102292.31;5006530;28;20050;-82
2022/03/13 05:57:32;;;;;;;7.80;7.10;;;;;;;3.69;60.38;102306.22;5006387;28;20116;-81
2022/03/13 05:59:58;;;;;;;10.33;7.43;;;;;;;3.79;60.94;102325.16;5006211;28;20136;-81
2022/03/13 06:02:25;;;;;;;12.87;9.23;;;;;;;3.86;61.10;102329.31;5005877;28;20061;-79
2022/03/13 06:04:52;;;;;;;13.73;8.30;;;;;;;3.89;61.21;102331.81;5006300;28;20141;-79
2022/03/13 06:07:19;;;;;;;13.27;7.63;;;;;;;3.85;61.17;102332.81;5008803;28;20064;-79
2022/03/13 06:09:45;;;;;;;11.20;7.77;;;;;;;3.85;60.78;102336.31;5013611;28;20050;-80
2022/03/13 06:12:13;;;;;;;9.63;8.53;;;;;;;3.84;61.40;102328.50;5015868;28;20104;-81
2022/03/13 06:14:40;;;;;;;9.30;8.47;;;;;;;3.88;60.91;102329.22;5009758;28;20161;-82
2022/03/13 06:17:06;;;;;;;10.07;8.63;;;;;;;3.90;60.67;102330.91;5005547;28;20158;-81
2022/03/13 06:19:34;;;;;;;9.87;8.50;;;;;;;3.79;60.91;102309.41;5005607;28;20042;-80
2022/03/13 06:22:00;;;;;;;12.73;9.23;;;;;;;3.99;61.42;102338.47;5007059;28;20076;-81
2022/03/13 06:24:28;;;;;;;12.70;9.57;;;;;;;4.01;60.96;102341.91;5005827;28;20565;-81
2022/03/13 06:26:54;;;;;;;10.10;8.60;;;;;;;3.47;60.87;102240.41;5005772;28;20050;-81
2022/03/13 06:29:22;;;;;;;11.90;9.23;;;;;;;3.98;60.23;102323.63;5007585;28;20061;-80
2022/03/13 06:31:50;;;;;;;9.03;8.10;;;;;;;4.15;60.60;102330.94;5005525;28;20053;-80
2022/03/13 06:34:17;;;;;;;10.33;8.57;;;;;;;4.07;60.26;102328.56;5004565;28;20060;-81
2022/03/13 06:36:44;;;;;;;11.63;9.07;;;;;;;4.25;59.56;102349.91;5004716;28;20361;-80
2022/03/13 06:39:11;;;;;;;13.23;9.60;;;;;;;4.19;59.85;102339.56;5022317;28;20112;-82
2022/03/13 06:41:38;;;;;;;13.30;9.30;;;;;;;4.34;59.82;102349.56;5006354;28;20142;-80
2022/03/13 06:44:05;;;;;;;10.77;9.47;;;;;;;4.40;59.36;102364.28;5006655;28;20475;-80
2022/03/13 06:46:35;;;;;;;15.73;10.20;;;;;;;4.44;59.78;102348.34;5006754;28;20050;-80
2022/03/13 06:49:05;;;;;;;12.47;10.77;;;;;;;3.74;59.44;102222.88;5006578;28;20434;-81
2022/03/13 06:51:38;;;;;;;13.33;10.07;;;;;;;4.58;59.78;102360.13;5006779;28;20232;-80
2022/03/13 06:54:10;;;;;;;11.77;9.53;;;;;;;4.15;59.36;102280.13;5008548;28;20046;-81
2022/03/13 06:56:39;;;;;;;11.27;9.43;;;;;;;4.52;58.80;102323.53;5007222;28;20638;-81
2022/03/13 06:59:06;;;;;;;12.30;10.03;;;;;;;3.93;57.75;102198.56;5005386;28;20050;-81
2022/03/13 07:01:34;;;;;;;10.93;9.17;;;;;;;4.99;57.38;102363.88;5006631;28;20141;-81
2022/03/13 07:04:00;;;;;;;13.43;11.43;;;;;;;5.04;57.82;102361.06;5005837;28;20073;-81
2022/03/13 07:06:27;;;;;;;12.70;9.97;;;;;;;5.02;57.32;102358.47;5007398;28;20050;-81
2022/03/13 07:08:55;;;;;;;11.40;10.20;;;;;;;5.10;56.77;102361.72;5006671;28;20058;-80
2022/03/13 07:11:22;;;;;;;12.93;11.57;;;;;;;5.20;57.52;102364.84;5007187;28;20144;-82
2022/03/13 07:13:49;;;;;;;14.60;11.80;;;;;;;5.01;57.21;102332.25;5007044;28;20349;-80
2022/03/13 07:16:16;;;;;;;15.80;11.10;;;;;;;4.52;57.21;102236.75;5005732;28;20495;-79
2022/03/13 07:18:43;;;;;;;14.23;11.77;;;;;;;5.35;56.99;102351.06;5022839;28;20145;-81
2022/03/13 07:21:10;;;;;;;14.13;12.63;;;;;;;5.21;56.67;102320.94;5007903;28;20129;-81
2022/03/13 07:23:38;;;;;;;14.77;12.37;;;;;;;5.25;56.66;102327.81;5007369;28;20045;-82
2022/03/13 07:26:05;;;;;;;16.40;12.63;;;;;;;5.52;56.12;102346.94;5004970;28;20073;-81
2022/03/13 07:28:31;;;;;;;14.67;13.23;;;;;;;5.39;55.89;102337.78;5006366;28;20216;-80
2022/03/13 07:30:58;;;;;;;21.63;12.80;;;;;;;5.68;55.94;102377.03;5004895;28;20077;-81
2022/03/13 07:33:25;;;;;;;16.17;14.23;;;;;;;5.76;55.40;102376.72;5004105;28;20108;-81
2022/03/13 07:35:55;;;;;;;15.43;13.73;;;;;;;5.26;55.57;102292.66;5004266;28;20766;-81
2022/03/13 07:38:22;;;;;;;16.93;13.60;;;;;;;5.80;55.61;102380.91;5004221;28;20065;-81
2022/03/13 07:40:49;;;;;;;15.25;13.65;;;;;;;5.65;55.25;102344.66;5005552;28;20060;-80
2022/03/13 07:43:16;;;;;;;16.77;13.48;;;;;;;4.31;55.08;102113.03;5006693;28;20351;-81
2022/03/13 07:45:43;;;;;;;15.60;12.27;;;;;;;5.88;54.62;102359.53;5005605;28;20046;-80
2022/03/13 07:48:10;;;;;;;14.02;11.55;;;;;;;5.83;54.53;102346.56;5006754;28;20096;-81
2022/03/13 07:50:37;;;;;;;13.52;11.60;;;;;;;6.00;54.74;102356.44;5005450;28;20077;-82
2022/03/13 07:53:04;;;;;;;14.50;12.52;;;;;;;6.10;54.90;102357.75;5021645;28;20064;-81
2022/03/13 07:55:31;;;;;;;13.90;12.23;;;;;;;6.17;54.52;102355.72;5015218;28;20054;-82
2022/03/13 07:57:57;;;;;;;13.40;11.30;;;;;;;6.39;53.84;102377.63;5021079;28;20138;-83
2022/03/13 08:00:24;;;;;;;13.00;11.68;;;;;;;6.37;54.26;102378.59;5031253;28;20034;-83
2022/03/13 08:02:54;;;;;;;14.75;12.50;;;;;;;6.28;53.80;102357.88;5019792;28;20061;-81
2022/03/13 08:05:24;;;;;;;13.73;11.57;;;;;;;6.52;53.47;102388.47;5005774;28;20484;-82
2022/03/13 08:07:56;;;;;;;12.75;9.82;;;;;;;6.18;53.46;102323.13;5005660;28;20050;-82
2022/03/13 08:10:23;;;;;;;12.35;11.00;;;;;;;6.61;53.41;102392.53;5005308;28;20056;-82
2022/03/13 08:12:53;;;;;;;14.48;10.68;;;;;;;6.61;53.17;102393.38;5007563;28;20046;-81
2022/03/13 08:15:20;;;;;;;11.32;10.13;;;;;;;6.73;53.52;102391.13;5024499;28;20331;-82
2022/03/13 08:17:46;;;;;;;11.95;10.52;;;;;;;6.01;53.84;102265.84;5045638;28;20038;-83
2022/03/13 08:20:13;;;;;;;12.35;10.95;;;;;;;6.67;53.88;102371.13;5031891;28;20118;-82
2022/03/13 08:22:40;;;;;;;12.05;9.93;;;;;;;6.84;53.48;102395.00;5029442;28;20140;-82
2022/03/13 08:25:08;;;;;;;14.52;9.93;;;;;;;6.73;53.23;102372.66;5024909;28;20041;-82
2022/03/13 08:27:35;;;;;;;13.30;9.15;;;;;;;6.69;53.29;102357.88;5009649;28;20054;-82
2022/03/13 08:30:04;;;;;;;9.85;8.77;;;;;;;6.92;52.91;102376.19;5010261;28;20054;-81
2022/03/13 08:32:30;;;;;;;12.00;10.32;;;;;;;7.07;52.64;102393.97;5007223;28;20061;-82
2022/03/13 08:34:57;;;;;;;10.85;9.70;;;;;;;6.97;52.62;102374.19;5015120;28;20597;-81
2022/03/13 08:37:24;;;;;;;10.52;8.88;;;;;;;7.14;52.21;102381.34;5008016;28;20069;-81
2022/03/13 08:39:51;;;;;;;11.10;9.45;;;;;;;7.11;51.88;102348.91;5007703;28;20099;-83
2022/03/13 08:42:17;;;;;;;11.95;9.45;;;;;;;7.24;51.90;102360.63;5007780;28;20135;-82
2022/03/13 08:44:44;;;;;;;10.18;9.05;;;;;;;7.21;51.88;102358.13;5008251;28;20064;-82
2022/03/13 08:47:10;;;;;;;9.85;8.95;;;;;;;7.11;51.77;102341.84;5008143;28;20580;-82
2022/03/13 08:49:37;;;;;;;10.35;9.25;;;;;;;7.26;51.21;102369.34;5008061;28;20046;-82
2022/03/13 08:52:04;;;;;;;10.90;9.60;;;;;;;7.34;51.47;102388.31;5007945;28;20370;-85
2022/03/13 08:54:30;;;;;;;10.35;9.35;;;;;;;7.34;51.89;102387.47;5009762;28;20121;-85
2022/03/13 08:56:57;;;;;;;10.23;9.23;;;;;;;7.47;51.38;102401.81;5008153;28;20045;-85
2022/03/13 08:59:24;;;;;;;11.15;8.73;;;;;;;6.96;50.74;102303.78;5024633;28;20219;-85
2022/03/13 09:01:53;;;;;;;11.27;8.15;;;;;;;7.56;50.49;102382.03;5009866;28;20547;-86
2022/03/13 09:04:20;;;;;;;11.25;8.05;;;;;;;7.72;50.09;102393.59;5008632;28;20054;-85
2022/03/13 09:06:49;;;;;;;10.20;7.95;;;;;;;7.77;49.41;102394.22;5024863;28;20053;-86
2022/03/13 09:09:18;;;;;;;9.75;7.38;;;;;;;7.80;49.48;102388.78;5009293;28;20141;-84
2022/03/13 09:11:51;;;;;;;8.98;8.18;;;;;;;7.90;49.83;102397.09;5008401;28;20046;-85
2022/03/13 09:14:18;;;;;;;10.52;8.02;;;;;;;8.04;49.30;102402.59;5009411;28;20054;-86
2022/03/13 09:16:45;;;;;;;8.75;7.85;;;;;;;7.91;48.59;102367.97;5028472;28;20054;-87
2022/03/13 09:19:13;;;;;;;8.98;8.07;;;;;;;8.03;48.36;102369.09;5027955;28;20045;-87
2022/03/13 09:21:40;;;;;;;10.93;8.48;;;;;;;7.89;48.17;102346.03;5027595;28;20041;-86
2022/03/13 09:24:08;;;;;;;9.13;7.43;;;;;;;8.09;47.77;102382.03;5028412;28;20458;-86
2022/03/13 09:26:43;;;;;;;9.68;8.30;;;;;;;7.66;48.01;102285.50;5027651;28;20053;-84
2022/03/13 09:29:10;;;;;;;8.85;7.85;;;;;;;8.52;47.79;102387.00;5028931;28;20270;-87
2022/03/13 09:31:36;;;;;;;7.47;6.72;;;;;;;8.06;45.96;102281.69;5027503;28;20151;-83
2022/03/13 09:34:03;;;;;;;6.43;5.25;;;;;;;8.20;43.98;102248.34;5029055;28;20403;-83
2022/03/13 09:36:35;;;;;;;6.90;6.25;;;;;;;7.98;42.95;102156.91;5028648;28;20212;-83
2022/03/13 09:39:07;;;;;;;8.43;7.35;;;;;;;8.72;43.85;102275.56;5027038;28;20171;-82
2022/03/13 09:41:34;;;;;;;7.07;6.43;;;;;;;8.43;43.32;102194.25;5028902;28;20103;-74
2022/03/13 09:44:01;;;;;;;6.68;5.93;;;;;;;8.94;43.23;102271.75;5027343;28;20089;-84
2022/03/13 09:46:31;;;;;;;6.95;6.25;;;;;;;9.69;41.94;102356.78;5028484;28;20337;-81
2022/03/13 09:48:58;;;;;;;7.85;6.75;;;;;;;9.74;42.31;102365.31;5027527;28;20056;-83
2022/03/13 09:51:24;;;;;;;6.95;5.78;;;;;;;8.73;42.03;102186.41;5013210;28;20056;-82
2022/03/13 09:53:51;;;;;;;8.73;7.35;;;;;;;9.46;42.75;102295.31;5007223;28;20068;-83
2022/03/13 09:56:17;;;;;;;9.48;8.05;;;;;;;10.05;42.61;102373.22;5007211;28;20049;-83
2022/03/13 09:58:45;;;;;;;11.25;9.32;;;;;;;9.89;42.74;102327.28;5007083;28;20046;-82
2022/03/13 10:01:12;;;;;;;8.48;7.60;;;;;;;10.13;42.68;102345.38;5006003;28;20107;-83
2022/03/13 10:03:39;;;;;;;8.23;6.97;;;;;;;10.25;42.62;102315.44;5004022;28;20054;-82
2022/03/13 10:06:06;;;;;;;8.90;8.07;;;;;;;10.09;42.42;102288.97;5005680;28;20411;-83
2022/03/13 10:08:34;;;;;;;9.20;7.53;;;;;;;10.25;42.12;102310.97;5008046;28;20485;-83
2022/03/13 10:11:03;;;;;;;8.93;8.02;;;;;;;10.41;42.13;102323.34;5006813;28;20288;-83
2022/03/13 10:13:33;;;;;;;11.93;8.02;;;;;;;10.50;42.43;102306.03;5006271;28;20129;-83
2022/03/13 10:16:00;;;;;;;9.02;8.13;;;;;;;10.55;42.51;102298.63;5006870;28;20488;-83
2022/03/13 10:18:27;;;;;;;9.00;8.02;;;;;;;10.82;41.93;102318.13;5007242;28;20054;-83
2022/03/13 10:20:55;;;;;;;10.35;9.07;;;;;;;11.14;41.70;102339.19;5007058;28;20057;-83
2022/03/13 10:23:23;;;;;;;8.82;7.93;;;;;;;11.24;41.76;102356.25;5006545;28;20560;-83
2022/03/13 10:25:52;;;;;;;12.43;9.82;;;;;;;11.30;41.66;102334.56;5024265;28;20053;-82
2022/03/13 10:28:28;;;;;;;9.80;8.80;;;;;;;11.33;41.74;102322.88;5012651;28;20121;-83
2022/03/13 10:30:56;;;;;;;9.48;8.55;;;;;;;11.68;41.36;102341.03;5017770;28;20050;-83
2022/03/13 10:33:43;;;;;;;10.75;9.32;;;;;;;11.87;42.27;102346.00;5017313;28;20542;-83
2022/03/13 10:36:11;;;;;;;9.88;8.90;;;;;;;12.17;41.88;102349.25;5012012;28;20061;-82
2022/03/13 10:38:39;;;;;;;10.85;8.95;;;;;;;12.14;40.56;102293.56;5023113;28;20064;-83
2022/03/13 10:41:09;;;;;;;9.88;8.88;;;;;;;12.39;40.28;102345.13;5007192;28;20097;-83
2022/03/13 10:43:51;;;;;;;10.63;9.02;;;;;;;12.53;40.70;102341.53;5023199;28;20106;-83
2022/03/13 10:46:26;;;;;;;9.63;8.60;;;;;;;12.38;40.40;102311.47;5006816;28;20201;-83
2022/03/13 10:48:54;;;;;;;10.50;9.40;;;;;;;12.72;40.24;102325.06;5006549;28;20057;-83
2022/03/13 10:51:48;;;;;;;9.77;8.80;;;;;;;12.76;40.19;102326.56;5007154;28;20054;-83
2022/03/13 10:54:26;;;;;;;11.57;9.10;;;;;;;12.85;40.38;102293.94;5023261;28;20053;-83
2022/03/13 10:57:07;;;;;;;9.85;8.85;;;;;;;13.00;40.46;102306.16;5006473;28;20508;-82
2022/03/13 10:59:34;;;;;;;9.93;9.02;;;;;;;12.98;39.60;102284.09;5006352;28;20104;-81
2022/03/13 11:02:14;;;;;;;9.43;8.48;;;;;;;12.70;39.95;102221.28;5023096;28;20058;-81
2022/03/13 11:04:50;;;;;;;11.88;9.23;;;;;;;12.98;39.36;102244.09;5006409;28;20045;-81
2022/03/13 11:07:20;;;;;;;12.77;8.02;;;;;;;13.37;38.75;102266.16;5006313;28;20077;-82
2022/03/13 11:09:49;;;;;;;9.80;8.77;;;;;;;13.42;38.76;102282.69;5005807;28;20411;-82
2022/03/13 11:12:20;;;;;;;10.32;9.23;;;;;;;13.52;38.54;102298.00;5005985;28;20050;-83
2022/03/13 11:14:58;;;;;;;10.43;9.43;;;;;;;12.65;38.53;102140.84;5025584;28;20052;-82
2022/03/13 11:17:27;;;;;;;9.38;8.50;;;;;;;13.62;39.20;102272.34;5026947;28;20107;-82
2022/03/13 11:19:56;;;;;;;11.38;10.27;;;;;;;13.15;38.09;102226.84;5025530;28;20045;-82
2022/03/13 11:22:23;;;;;;;10.25;8.90;;;;;;;13.69;39.17;102297.59;5041665;28;20531;-82
2022/03/13 11:24:53;;;;;;;12.48;8.82;;;;;;;13.75;38.24;102302.47;5025165;28;20076;-83
2022/03/13 11:27:21;;;;;;;8.88;8.07;;;;;;;13.93;38.17;102297.53;5025186;28;20049;-82
2022/03/13 11:29:52;;;;;;;11.40;9.00;;;;;;;13.87;37.62;102282.00;5024949;28;20060;-84